Time;durP1;ratioP1;P1;durP2;ratioP2;P2;SDS_P1;SDS_P2;PMS_P1;PMS_P2;Temp;Humidity;BMP_temperature;BMP_pressure;BME280_temperature;BME280_humidity;BME280_pressure;Samples;Min_cycle;Max_cycle;Signal;HPM_P1;HPM_P2
2022/01/26 00:05:53;;;;;;;36.30;15.05;;;;;;;0.66;100.00;100921.72;4487781;31;35651;-74
2022/01/26 00:08:40;;;;;;;36.25;15.93;;;;;;;0.63;100.00;100922.97;4489010;31;34323;-74
2022/01/26 00:11:27;;;;;;;42.15;16.50;;;;;;;0.79;100.00;100918.94;4476875;31;35633;-74
2022/01/26 00:14:14;;;;;;;36.22;16.58;;;;;;;0.71;100.00;100929.13;4478331;31;35016;-74
2022/01/26 00:17:01;;;;;;;37.15;15.18;;;;;;;0.52;100.00;100922.81;4475211;31;34324;-74
2022/01/26 00:25:43;;;;;;;35.40;15.32;;;;;;;0.85;100.00;100923.50;4483906;31;35951;-73
2022/01/26 00:41:03;;;;;;;38.30;16.65;;;;;;;0.63;100.00;100927.53;4479808;31;35473;-74
2022/01/26 00:43:55;;;;;;;43.72;19.40;;;;;;;0.49;100.00;100925.94;4487734;31;35153;-73
2022/01/26 00:46:47;;;;;;;38.30;16.27;;;;;;;0.53;100.00;100930.66;4463185;31;34362;-73
2022/01/26 00:49:33;;;;;;;37.30;16.42;;;;;;;0.94;100.00;100925.91;4488706;31;34663;-73
2022/01/26 00:52:27;;;;;;;37.60;15.35;;;;;;;1.17;100.00;100937.00;4475333;31;35880;-73
2022/01/26 00:55:16;;;;;;;40.92;16.25;;;;;;;1.17;99.82;100930.75;4489552;31;34189;-73
2022/01/26 00:58:03;;;;;;;43.03;17.87;;;;;;;0.87;100.00;100932.16;4477747;31;35665;-73
2022/01/26 01:00:49;;;;;;;43.38;19.15;;;;;;;0.64;100.00;100929.19;4493254;31;36050;-74
2022/01/26 01:03:40;;;;;;;44.63;20.67;;;;;;;0.38;100.00;100925.53;4494497;31;35680;-74
2022/01/26 01:06:30;;;;;;;41.58;19.30;;;;;;;0.28;100.00;100927.00;4472404;31;35331;-74
2022/01/26 01:09:17;;;;;;;45.53;20.15;;;;;;;0.22;100.00;100923.28;4478691;31;34724;-74
2022/01/26 01:12:06;;;;;;;40.33;17.40;;;;;;;0.07;100.00;100918.16;4480214;31;35988;-74
2022/01/26 01:14:52;;;;;;;41.33;18.27;;;;;;;0.23;100.00;100919.56;4464047;31;34294;-74
2022/01/26 01:17:45;;;;;;;39.00;17.83;;;;;;;0.14;100.00;100926.22;4490777;31;34157;-74
2022/01/26 01:32:26;;;;;;;39.03;15.52;;;;;;;0.58;100.00;100930.84;4486914;31;35670;-75
2022/01/26 01:35:13;;;;;;;36.72;16.05;;;;;;;0.58;100.00;100928.16;4489616;31;35006;-74
2022/01/26 01:38:08;;;;;;;40.10;17.42;;;;;;;0.38;100.00;100927.41;4488701;31;34296;-74
2022/01/26 01:40:55;;;;;;;39.55;17.12;;;;;;;0.53;100.00;100930.66;4486373;31;34235;-74
2022/01/26 01:43:41;;;;;;;37.78;15.23;;;;;;;0.44;100.00;100930.06;4490040;31;35928;-74
2022/01/26 01:46:28;;;;;;;36.35;16.92;;;;;;;0.67;100.00;100923.34;4491498;31;35004;-74
2022/01/26 01:49:15;;;;;;;38.78;16.50;;;;;;;0.49;100.00;100924.06;4487233;31;35473;-74
2022/01/26 01:52:05;;;;;;;46.25;19.60;;;;;;;0.76;100.00;100916.66;4480688;31;34257;-73
2022/01/26 01:54:54;;;;;;;34.97;17.30;;;;;;;0.66;100.00;100925.22;4478347;31;35033;-74
2022/01/26 01:57:40;;;;;;;38.28;15.60;;;;;;;0.80;100.00;100917.09;4486595;31;34797;-73
2022/01/26 02:00:28;;;;;;;35.60;16.45;;;;;;;0.64;100.00;100923.78;4487190;31;34351;-73
2022/01/26 02:03:14;;;;;;;37.50;17.23;;;;;;;0.76;100.00;100923.94;4478325;31;34446;-73
2022/01/26 02:06:01;;;;;;;39.17;17.33;;;;;;;0.82;100.00;100923.88;4478092;31;35498;-74
2022/01/26 02:08:47;;;;;;;37.70;15.32;;;;;;;0.52;100.00;100920.94;4484895;31;34654;-73
2022/01/26 02:11:33;;;;;;;40.05;15.43;;;;;;;0.85;100.00;100922.63;4477909;31;34539;-74
2022/01/26 02:14:34;;;;;;;34.95;15.23;;;;;;;0.72;100.00;100915.44;4490828;31;34322;-74
2022/01/26 02:51:07;;;;;;;37.45;18.58;;;;;;;0.52;100.00;100903.91;4489431;31;35271;-74
2022/01/26 03:02:50;;;;;;;36.00;15.85;;;;;;;0.30;100.00;100887.19;4491286;31;33482;-74
2022/01/26 03:05:34;;;;;;;41.20;17.05;;;;;;;0.29;100.00;100890.94;4486609;31;35499;-74
2022/01/26 03:08:29;;;;;;;39.85;18.05;;;;;;;0.01;100.00;100889.34;4486549;31;35011;-74
2022/01/26 03:11:16;;;;;;;35.17;13.95;;;;;;;0.13;100.00;100881.44;4478662;31;34574;-74
2022/01/26 03:14:16;;;;;;;38.25;15.85;;;;;;;0.24;100.00;100878.09;4467908;31;35248;-74
2022/01/26 03:17:17;;;;;;;36.45;15.00;;;;;;;0.62;100.00;100878.13;4487935;31;35633;-73
2022/01/26 03:20:10;;;;;;;35.63;13.40;;;;;;;0.23;100.00;100871.06;4477175;31;35512;-73
2022/01/26 03:29:58;;;;;;;36.97;14.57;;;;;;;0.24;100.00;100874.56;4485078;31;34746;-73
2022/01/26 03:35:48;;;;;;;23.70;11.05;;;;;;;0.41;100.00;100884.66;4489410;31;34711;-73
2022/01/26 03:38:47;;;;;;;30.85;14.07;;;;;;;0.47;100.00;100893.75;4489782;31;33826;-73
2022/01/26 03:41:40;;;;;;;33.15;13.75;;;;;;;0.48;100.00;100892.72;4477370;31;33455;-73
2022/01/26 03:44:27;;;;;;;33.35;13.85;;;;;;;0.74;100.00;100890.94;4464611;31;35564;-73
2022/01/26 03:47:13;;;;;;;32.45;12.82;;;;;;;1.04;99.23;100899.28;4474306;31;34650;-73
2022/01/26 03:49:59;;;;;;;36.95;15.18;;;;;;;0.94;99.22;100901.63;4477181;31;35079;-73
2022/01/26 03:52:46;;;;;;;33.22;14.43;;;;;;;0.58;100.00;100903.06;4492841;31;35609;-73
2022/01/26 03:55:32;;;;;;;33.65;13.65;;;;;;;1.26;97.77;100897.91;4480881;31;35708;-73
2022/01/26 03:58:19;;;;;;;35.65;13.85;;;;;;;0.72;98.64;100901.97;4477848;31;34782;-72
2022/01/26 04:01:05;;;;;;;33.55;14.13;;;;;;;0.47;100.00;100892.94;4494292;31;34617;-73
2022/01/26 04:03:52;;;;;;;34.22;14.55;;;;;;;0.36;100.00;100897.94;4464488;31;34666;-73
2022/01/26 04:06:39;;;;;;;28.45;12.82;;;;;;;0.32;100.00;100895.91;4486787;31;35497;-73
2022/01/26 04:09:26;;;;;;;31.60;13.85;;;;;;;0.64;100.00;100894.94;4489373;31;35449;-73
2022/01/26 04:12:12;;;;;;;32.03;14.02;;;;;;;0.56;100.00;100891.66;4481004;31;33808;-74
2022/01/26 04:15:06;;;;;;;32.38;13.43;;;;;;;0.99;98.79;100896.41;4477637;31;34326;-73
2022/01/26 04:17:52;;;;;;;30.12;13.13;;;;;;;1.39;96.62;100888.03;4480678;31;35561;-73
2022/01/26 04:20:43;;;;;;;28.90;12.57;;;;;;;0.86;97.71;100881.97;4490613;31;34649;-73
2022/01/26 04:23:44;;;;;;;31.05;12.90;;;;;;;1.51;95.18;100883.59;4466044;31;34154;-73
2022/01/26 04:26:55;;;;;;;;;;;;;;;1.03;97.01;100892.25;4481859;31;35520;-73
2022/01/26 04:29:40;;;;;;;27.55;11.70;;;;;;;1.68;93.64;100887.38;4480575;31;36136;-72
2022/01/26 04:32:26;;;;;;;28.62;11.52;;;;;;;1.98;92.33;100887.50;4478885;31;34676;-73
2022/01/26 04:35:12;;;;;;;29.17;12.73;;;;;;;1.66;93.26;100884.06;4490799;31;34115;-73
2022/01/26 04:44:24;;;;;;;31.08;12.68;;;;;;;1.06;95.44;100886.41;4454809;32;34591;-73
2022/01/26 04:47:10;;;;;;;35.78;14.65;;;;;;;1.26;95.63;100881.69;4480836;31;35174;-73
2022/01/26 04:49:56;;;;;;;35.15;15.13;;;;;;;1.54;93.83;100880.44;4489319;31;34181;-73
2022/01/26 04:52:46;;;;;;;41.33;16.48;;;;;;;1.80;92.45;100892.88;4492747;31;35115;-73
2022/01/26 04:55:32;;;;;;;38.00;17.15;;;;;;;1.46;92.72;100888.81;4489033;31;35693;-73
2022/01/26 04:58:19;;;;;;;48.20;21.35;;;;;;;1.88;91.22;100883.66;4475944;31;35262;-73
2022/01/26 05:01:05;;;;;;;53.17;22.23;;;;;;;1.83;92.38;100880.81;4489229;31;35653;-73
2022/01/26 05:03:51;;;;;;;48.13;20.40;;;;;;;0.76;96.61;100881.59;4477944;31;35051;-73
2022/01/26 05:06:38;;;;;;;39.85;16.30;;;;;;;1.56;95.14;100878.34;4479758;31;35389;-73
2022/01/26 05:09:24;;;;;;;35.20;14.60;;;;;;;1.81;92.16;100878.31;4481686;31;34118;-71
2022/01/26 05:12:13;;;;;;;31.48;13.82;;;;;;;2.51;88.04;100871.75;4481902;31;34981;-73
2022/01/26 05:14:59;;;;;;;32.85;13.48;;;;;;;2.61;86.65;100866.59;4468904;31;35266;-73
2022/01/26 05:17:46;;;;;;;30.67;13.48;;;;;;;2.83;85.20;100869.62;4495891;31;34934;-73
2022/01/26 05:20:34;;;;;;;30.15;14.15;;;;;;;2.80;84.64;100868.22;4469210;31;34389;-73
2022/01/26 05:23:20;;;;;;;28.75;12.75;;;;;;;2.90;84.32;100870.34;4468582;31;35696;-73
2022/01/26 05:26:07;;;;;;;31.33;12.50;;;;;;;3.01;83.83;100871.47;4491528;31;35592;-73
2022/01/26 05:28:53;;;;;;;31.17;12.82;;;;;;;2.76;84.56;100866.19;4468901;31;34681;-73
2022/01/26 05:31:39;;;;;;;27.90;13.13;;;;;;;2.30;86.73;100871.13;4466498;31;34404;-72
2022/01/26 05:34:26;;;;;;;30.90;13.30;;;;;;;1.96;88.07;100875.25;4467974;31;35891;-72
2022/01/26 05:37:12;;;;;;;32.40;13.75;;;;;;;2.67;86.50;100866.50;4464949;31;36079;-72
2022/01/26 05:39:59;;;;;;;30.35;11.95;;;;;;;2.34;85.93;100866.94;4480769;31;34652;-72
2022/01/26 05:42:45;;;;;;;28.67;13.30;;;;;;;2.94;84.62;100868.84;4479020;31;35137;-71
2022/01/26 05:45:35;;;;;;;28.80;12.90;;;;;;;3.21;82.82;100869.28;4460548;31;35561;-72
2022/01/26 05:48:21;;;;;;;29.92;13.80;;;;;;;2.97;83.29;100876.50;4492438;31;36258;-72
2022/01/26 05:51:09;;;;;;;30.83;13.23;;;;;;;3.20;82.75;100878.47;4482694;31;35727;-72
2022/01/26 05:53:55;;;;;;;28.10;11.52;;;;;;;3.26;82.49;100874.81;4472967;31;34517;-72
2022/01/26 05:56:44;;;;;;;31.67;12.75;;;;;;;3.14;82.47;100874.78;4484319;31;34144;-72
2022/01/26 05:59:32;;;;;;;31.37;13.60;;;;;;;2.22;86.94;100880.38;4481200;31;35698;-72
2022/01/26 06:02:19;;;;;;;30.80;15.13;;;;;;;2.31;86.64;100882.78;4475754;31;33097;-72
2022/01/26 06:05:07;;;;;;;33.13;14.18;;;;;;;0.57;95.46;100885.19;4482420;31;35085;-72
2022/01/26 06:07:53;;;;;;;38.33;15.48;;;;;;;0.63;99.28;100887.06;4470364;31;35526;-72
2022/01/26 06:10:39;;;;;;;33.75;13.85;;;;;;;0.20;99.59;100888.47;4480177;31;35341;-71
2022/01/26 06:13:25;;;;;;;33.47;16.20;;;;;;;1.06;97.79;100886.41;4481889;31;34830;-72
2022/01/26 06:16:12;;;;;;;30.33;14.30;;;;;;;0.47;99.18;100887.56;4492588;31;33765;-71
2022/01/26 06:18:58;;;;;;;34.60;15.20;;;;;;;0.63;99.39;100895.16;4492449;31;34729;-72
2022/01/26 06:21:45;;;;;;;32.90;14.00;;;;;;;0.92;98.39;100899.16;4467772;31;34769;-72
2022/01/26 06:24:31;;;;;;;32.60;13.65;;;;;;;1.12;97.15;100899.03;4474522;31;34218;-73
2022/01/26 06:27:17;;;;;;;32.65;12.88;;;;;;;1.06;96.37;100891.81;4476138;31;34143;-73
2022/01/26 06:30:06;;;;;;;31.90;13.52;;;;;;;0.68;99.92;100895.31;4465089;31;34653;-73
2022/01/26 06:32:53;;;;;;;27.70;12.37;;;;;;;0.58;100.00;100890.41;4478114;31;35064;-73
2022/01/26 06:35:40;;;;;;;29.52;12.93;;;;;;;0.68;99.77;100887.22;4465508;31;34930;-73
2022/01/26 06:38:30;;;;;;;28.90;13.35;;;;;;;0.67;99.39;100888.28;4480436;31;33891;-71
2022/01/26 06:41:23;;;;;;;28.58;12.07;;;;;;;0.51;100.00;100894.16;4467047;31;35743;-73
2022/01/26 06:44:19;;;;;;;28.52;12.80;;;;;;;0.70;99.81;100892.44;4463640;31;35050;-74
2022/01/26 06:49:58;;;;;;;27.77;12.35;;;;;;;0.72;100.00;100901.13;4479416;31;34461;-73
2022/01/26 06:52:46;;;;;;;27.33;11.68;;;;;;;0.74;98.99;100904.44;4469894;31;34647;-73
2022/01/26 06:55:32;;;;;;;28.02;12.02;;;;;;;0.81;99.25;100889.88;4472340;31;34991;-73
2022/01/26 06:58:19;;;;;;;24.23;12.20;;;;;;;0.92;98.96;100901.03;4453568;31;35526;-73
2022/01/26 07:01:05;;;;;;;26.40;10.88;;;;;;;1.07;98.00;100899.66;4488359;31;35253;-73
2022/01/26 07:03:52;;;;;;;25.95;10.27;;;;;;;0.79;99.52;100900.03;4489960;31;35534;-73
2022/01/26 07:06:38;;;;;;;27.60;12.52;;;;;;;0.88;98.86;100896.06;4478628;31;35131;-73
2022/01/26 07:09:24;;;;;;;27.67;12.50;;;;;;;0.66;99.52;100895.56;4478649;31;34570;-73
2022/01/26 07:12:11;;;;;;;27.17;12.35;;;;;;;0.85;98.62;100895.66;4475866;31;34154;-73
2022/01/26 07:21:27;;;;;;;28.58;12.57;;;;;;;1.07;98.01;100891.56;4489476;31;34595;-72
2022/01/26 07:24:14;;;;;;;36.03;15.20;;;;;;;0.86;98.59;100892.75;4492055;31;35213;-73
2022/01/26 07:27:00;;;;;;;26.73;11.68;;;;;;;1.31;95.97;100889.16;4480256;31;34208;-73
2022/01/26 07:29:48;;;;;;;29.55;13.95;;;;;;;1.15;96.34;100887.78;4478377;31;34880;-73
2022/01/26 07:32:37;;;;;;;32.55;14.18;;;;;;;0.98;96.73;100883.97;4477019;31;35461;-73
2022/01/26 07:35:23;;;;;;;34.10;15.02;;;;;;;1.07;96.87;100882.66;4478222;31;34271;-72
2022/01/26 07:38:09;;;;;;;30.15;14.68;;;;;;;1.05;96.57;100879.34;4479998;31;34526;-73
2022/01/26 07:40:56;;;;;;;34.53;14.32;;;;;;;1.21;95.92;100884.22;4489599;31;34289;-73
2022/01/26 07:43:42;;;;;;;25.52;11.32;;;;;;;1.39;95.59;100879.94;4477294;31;35374;-73
2022/01/26 07:46:28;;;;;;;29.90;11.98;;;;;;;1.22;95.68;100885.88;4489168;31;34370;-73
2022/01/26 07:49:15;;;;;;;25.00;10.43;;;;;;;1.12;95.97;100888.22;4465575;31;35315;-73
2022/01/26 07:52:01;;;;;;;20.33;9.27;;;;;;;1.25;94.98;100890.00;4490792;31;35100;-74
2022/01/26 07:54:51;;;;;;;21.87;10.02;;;;;;;1.33;94.33;100887.84;4489994;31;34618;-74
2022/01/26 07:57:37;;;;;;;21.90;9.57;;;;;;;1.32;94.03;100891.63;4490156;31;33960;-73
2022/01/26 08:00:24;;;;;;;19.70;9.38;;;;;;;1.31;94.65;100889.97;4489221;31;34672;-72
2022/01/26 08:03:11;;;;;;;19.23;8.73;;;;;;;1.60;93.58;100884.13;4466898;31;34728;-73
2022/01/26 08:05:57;;;;;;;20.90;9.50;;;;;;;1.57;92.76;100882.69;4486506;31;35349;-74
2022/01/26 08:08:44;;;;;;;20.95;9.77;;;;;;;1.44;92.68;100885.50;4475838;31;34070;-73
2022/01/26 08:11:30;;;;;;;24.77;11.73;;;;;;;1.47;92.29;100891.28;4493734;31;35949;-74
2022/01/26 08:14:17;;;;;;;25.08;10.52;;;;;;;1.28;93.00;100895.81;4490342;31;35918;-74
2022/01/26 08:17:07;;;;;;;23.40;10.05;;;;;;;1.42;92.94;100883.00;4474592;31;35120;-75
2022/01/26 08:19:56;;;;;;;18.97;9.57;;;;;;;1.46;92.33;100881.53;4470966;31;35113;-75
2022/01/26 08:22:43;;;;;;;25.33;11.80;;;;;;;1.42;92.93;100882.19;4491437;31;34596;-75
2022/01/26 08:25:29;;;;;;;19.80;9.18;;;;;;;1.29;93.72;100883.12;4478258;31;34610;-74
2022/01/26 08:28:22;;;;;;;23.70;10.32;;;;;;;1.48;92.50;100886.69;4488871;31;35483;-75
2022/01/26 08:31:09;;;;;;;22.52;9.52;;;;;;;1.40;92.88;100878.91;4489418;31;34226;-74
2022/01/26 08:33:55;;;;;;;24.37;11.00;;;;;;;1.77;91.35;100874.41;4488057;31;34758;-73
2022/01/26 08:36:41;;;;;;;20.52;9.95;;;;;;;1.66;91.79;100875.97;4469969;31;92689;-73
2022/01/26 08:39:28;;;;;;;25.42;14.20;;;;;;;1.46;92.06;100878.84;4489884;31;34799;-74
2022/01/26 08:42:14;;;;;;;20.65;8.88;;;;;;;1.51;91.52;100878.19;4478277;31;33987;-74
2022/01/26 08:45:00;;;;;;;30.73;10.23;;;;;;;1.68;91.04;100883.84;4492755;31;35524;-74
2022/01/26 08:47:47;;;;;;;21.75;9.82;;;;;;;1.69;91.50;100880.09;4493223;31;35543;-74
2022/01/26 08:50:34;;;;;;;21.73;8.60;;;;;;;1.55;91.71;100892.91;4489013;31;34585;-73
2022/01/26 08:53:22;;;;;;;20.15;9.20;;;;;;;1.70;91.74;100896.06;4464829;31;33925;-74
2022/01/26 08:56:08;;;;;;;22.27;10.20;;;;;;;1.67;91.37;100887.59;4477496;31;35224;-76
2022/01/26 08:58:54;;;;;;;23.50;11.05;;;;;;;1.72;90.50;100885.88;4492394;31;36120;-75
2022/01/26 09:01:41;;;;;;;19.95;10.52;;;;;;;1.37;92.04;100884.72;4462829;31;34514;-72
2022/01/26 09:04:28;;;;;;;15.98;7.00;;;;;;;1.49;91.68;100893.78;4477785;31;34153;-75
2022/01/26 09:07:16;;;;;;;19.45;9.07;;;;;;;1.61;91.74;100894.72;4493984;31;34647;-74
2022/01/26 09:10:04;;;;;;;18.95;8.07;;;;;;;1.76;90.51;100897.87;4477068;31;34974;-73
2022/01/26 09:12:51;;;;;;;19.62;7.80;;;;;;;1.77;90.77;100906.84;4476601;31;34606;-74
2022/01/26 09:15:39;;;;;;;19.73;10.35;;;;;;;2.11;88.70;100889.25;4477839;31;34112;-74
2022/01/26 09:18:39;;;;;;;18.55;7.53;;;;;;;1.99;89.12;100893.72;4487643;31;34573;-74
2022/01/26 09:21:26;;;;;;;18.17;7.55;;;;;;;1.93;89.17;100884.63;4491794;31;34043;-73
2022/01/26 09:24:12;;;;;;;18.90;8.77;;;;;;;1.98;88.45;100895.59;4485021;31;34696;-73
2022/01/26 09:26:59;;;;;;;18.02;8.35;;;;;;;2.21;87.70;100883.31;4463158;31;34081;-74
2022/01/26 09:29:46;;;;;;;14.98;7.30;;;;;;;2.64;85.34;100890.50;4472078;31;34609;-75
2022/01/26 09:32:32;;;;;;;20.20;7.90;;;;;;;2.38;87.30;100888.94;4490558;31;35048;-74
2022/01/26 09:35:19;;;;;;;17.35;8.38;;;;;;;2.46;87.27;100892.16;4478758;31;34743;-74
2022/01/26 09:38:05;;;;;;;17.62;8.07;;;;;;;2.24;87.34;100893.66;4476923;31;35283;-74
2022/01/26 09:40:52;;;;;;;19.73;8.57;;;;;;;2.38;87.53;100891.66;4489505;31;34077;-73
2022/01/26 09:43:38;;;;;;;17.67;7.87;;;;;;;2.33;87.23;100894.19;4488008;31;35133;-74
2022/01/26 09:46:24;;;;;;;17.60;8.85;;;;;;;2.17;88.17;100891.06;4477074;31;33582;-74
2022/01/26 09:49:14;;;;;;;15.82;8.35;;;;;;;2.21;87.17;100892.25;4488488;31;34152;-74
2022/01/26 09:52:06;;;;;;;19.52;8.55;;;;;;;2.43;87.67;100892.62;4478256;31;35536;-74
2022/01/26 09:54:56;;;;;;;16.02;7.70;;;;;;;2.08;88.24;100894.25;4477453;31;35979;-73
2022/01/26 09:57:44;;;;;;;;;;;;;;;2.34;87.44;100893.97;4489517;31;35527;-73
2022/01/26 10:00:31;;;;;;;20.70;8.27;;;;;;;2.10;88.35;100897.56;4475471;31;34123;-74
2022/01/26 10:03:25;;;;;;;18.40;7.95;;;;;;;2.37;87.33;100873.78;4477998;31;34532;-73
2022/01/26 10:06:25;;;;;;;15.40;7.90;;;;;;;2.36;86.66;100874.81;4467630;31;34977;-75
2022/01/26 10:09:50;;;;;;;17.58;8.35;;;;;;;2.31;87.54;100872.81;4478538;31;34590;-74
2022/01/26 10:16:19;;;;;;;20.55;9.60;;;;;;;2.61;85.60;100872.81;4476379;31;33551;-73
2022/01/26 10:19:08;;;;;;;19.50;10.60;;;;;;;2.47;86.42;100865.94;4479408;31;35021;-73
2022/01/26 10:21:54;;;;;;;18.80;8.82;;;;;;;2.42;85.67;100863.06;4493027;31;34584;-75
2022/01/26 10:24:40;;;;;;;16.40;7.40;;;;;;;2.69;84.95;100863.56;4479638;31;34142;-73
2022/01/26 10:27:36;;;;;;;15.25;7.78;;;;;;;2.56;85.29;100864.59;4462225;31;34247;-74
2022/01/26 10:30:22;;;;;;;18.73;9.07;;;;;;;2.53;86.20;100870.44;4489466;31;34981;-73
2022/01/26 10:33:08;;;;;;;18.35;8.40;;;;;;;2.52;85.36;100868.78;4473974;31;34831;-74
2022/01/26 10:36:00;;;;;;;18.48;8.38;;;;;;;2.58;85.85;100867.87;4478533;31;35280;-74
2022/01/26 10:39:32;;;;;;;18.00;8.10;;;;;;;2.60;84.69;100867.66;4474606;31;34600;-73
2022/01/26 10:42:21;;;;;;;17.60;7.87;;;;;;;2.72;84.66;100862.28;4489452;31;35917;-73
2022/01/26 10:45:14;;;;;;;16.98;7.65;;;;;;;2.76;84.34;100867.03;4474331;31;34387;-73
2022/01/26 10:48:11;;;;;;;16.70;7.72;;;;;;;2.68;84.51;100861.94;4491586;31;33213;-73
2022/01/26 10:51:33;;;;;;;18.20;7.95;;;;;;;2.76;84.54;100863.47;4489201;31;34718;-74
2022/01/26 10:54:41;;;;;;;19.35;8.57;;;;;;;2.61;84.30;100859.28;4480831;31;34950;-73
2022/01/26 10:57:28;;;;;;;19.33;8.35;;;;;;;2.52;85.10;100857.97;4479286;31;35050;-73
2022/01/26 11:00:15;;;;;;;17.05;7.95;;;;;;;2.83;83.41;100853.41;4474878;31;35056;-73
2022/01/26 11:03:01;;;;;;;16.37;7.78;;;;;;;2.73;83.48;100856.63;4491137;31;35343;-73
2022/01/26 11:05:48;;;;;;;18.65;7.68;;;;;;;2.56;85.27;100848.34;4478760;31;35979;-72
2022/01/26 11:08:40;;;;;;;21.35;8.80;;;;;;;2.99;84.33;100850.03;4489444;31;33450;-73
2022/01/26 11:11:26;;;;;;;17.60;8.93;;;;;;;3.30;81.93;100843.53;4474583;31;35012;-75
2022/01/26 11:14:13;;;;;;;18.30;7.78;;;;;;;2.57;84.01;100849.19;4477390;31;34379;-74
2022/01/26 11:17:33;;;;;;;17.83;7.68;;;;;;;2.51;84.54;100844.69;4476735;31;35838;-75
2022/01/26 11:20:29;;;;;;;14.82;6.75;;;;;;;2.43;84.45;100837.69;4477035;31;35511;-74
2022/01/26 11:23:17;;;;;;;15.90;6.87;;;;;;;2.57;84.23;100841.88;4464597;31;34187;-74
2022/01/26 11:26:04;;;;;;;16.52;6.90;;;;;;;2.76;83.11;100844.53;4489493;31;35621;-74
2022/01/26 11:28:50;;;;;;;16.23;7.28;;;;;;;2.86;82.96;100848.34;4474621;31;34443;-74
2022/01/26 11:31:38;;;;;;;14.87;7.68;;;;;;;3.25;81.43;100847.97;4481232;31;34577;-75
2022/01/26 11:34:34;;;;;;;15.88;6.95;;;;;;;2.47;83.92;100838.88;4477554;31;35341;-75
2022/01/26 11:37:42;;;;;;;15.38;8.52;;;;;;;2.66;83.33;100847.78;4477321;31;35503;-75
2022/01/26 11:46:55;;;;;;;15.07;7.35;;;;;;;3.34;81.12;100843.87;4489689;31;34231;-74
2022/01/26 11:49:44;;;;;;;16.15;8.00;;;;;;;3.15;80.44;100835.81;4480547;31;34670;-74
2022/01/26 11:52:35;;;;;;;14.95;6.35;;;;;;;3.21;79.95;100844.88;4476902;31;35007;-74
2022/01/26 11:55:27;;;;;;;;;;;;;;;3.25;80.91;100834.44;4488080;31;34606;-74
2022/01/26 11:58:27;;;;;;;15.23;6.90;;;;;;;3.06;80.88;100839.91;4476926;31;34681;-75
2022/01/26 12:04:08;;;;;;;15.13;7.53;;;;;;;3.57;80.12;100830.31;4480851;31;34998;-75
2022/01/26 12:07:09;;;;;;;12.57;6.00;;;;;;;3.21;80.40;100841.38;4475826;31;34589;-75
2022/01/26 12:09:56;;;;;;;15.23;7.17;;;;;;;3.35;80.51;100824.66;4467794;31;35027;-74
2022/01/26 12:12:42;;;;;;;15.40;6.53;;;;;;;3.66;78.52;100827.28;4488907;31;35508;-75
2022/01/26 12:15:41;;;;;;;14.18;7.03;;;;;;;3.12;80.16;100820.03;4489853;31;34957;-74
2022/01/26 12:34:30;;;;;;;16.52;7.32;;;;;;;3.30;79.68;100804.75;4489345;31;34419;-74
2022/01/26 12:43:06;;;;;;;16.20;7.75;;;;;;;2.94;81.33;100790.34;4489961;31;34575;-75
2022/01/26 12:46:17;;;;;;;15.20;8.70;;;;;;;3.33;79.42;100785.31;4481190;31;34243;-75
2022/01/26 12:49:15;;;;;;;14.82;7.00;;;;;;;2.77;81.66;100794.78;4476086;31;34592;-74
2022/01/26 12:52:01;;;;;;;14.55;7.65;;;;;;;2.95;81.53;100785.75;4463752;31;35694;-75
2022/01/26 12:54:48;;;;;;;16.20;8.27;;;;;;;2.91;80.50;100777.28;4494704;31;34584;-74
2022/01/26 12:57:44;;;;;;;14.23;7.37;;;;;;;2.84;81.77;100787.38;4491842;31;35254;-76
2022/01/26 13:00:42;;;;;;;13.77;6.90;;;;;;;3.06;80.83;100782.22;4476720;31;35577;-75
2022/01/26 13:03:36;;;;;;;12.57;5.57;;;;;;;3.04;79.70;100774.31;4478400;31;35903;-74
2022/01/26 13:06:28;;;;;;;12.37;6.55;;;;;;;2.82;80.33;100792.22;4493008;31;33538;-75
2022/01/26 13:09:21;;;;;;;14.10;5.70;;;;;;;2.77;81.12;100795.59;4480305;31;34215;-75
2022/01/26 13:12:09;;;;;;;13.73;6.62;;;;;;;2.90;80.57;100794.56;4479714;31;35628;-75
2022/01/26 13:15:07;;;;;;;14.38;5.93;;;;;;;2.82;80.50;100797.62;4475355;31;36001;-75
2022/01/26 13:18:03;;;;;;;14.02;6.82;;;;;;;2.87;80.72;100784.19;4478835;31;35482;-74
2022/01/26 13:24:27;;;;;;;14.65;6.72;;;;;;;2.88;80.74;100785.84;4492564;31;35601;-74
2022/01/26 13:27:07;;;;;;;15.23;7.10;;;;;;;2.86;80.53;100772.53;4493548;31;35077;-75
2022/01/26 13:30:05;;;;;;;12.20;5.35;;;;;;;2.98;80.05;100774.44;4478168;31;34874;-75
2022/01/26 13:36:11;;;;;;;19.48;9.68;;;;;;;2.90;80.28;100776.44;4483315;31;35533;-75
2022/01/26 13:39:14;;;;;;;27.08;11.20;;;;;;;3.17;79.98;100778.72;4492868;31;34698;-75
2022/01/26 13:45:51;;;;;;;20.77;9.07;;;;;;;3.10;79.12;100776.13;4489479;31;34175;-76
2022/01/26 13:48:38;;;;;;;32.63;14.52;;;;;;;3.38;78.47;100771.88;4479057;31;35440;-76
2022/01/26 14:00:40;;;;;;;49.25;19.33;;;;;;;3.28;79.23;100783.31;4478477;31;34327;-76
2022/01/26 14:03:30;;;;;;;24.75;11.95;;;;;;;3.07;79.35;100784.69;4492157;31;36014;-74
2022/01/26 14:06:17;;;;;;;22.25;9.13;;;;;;;2.93;80.11;100777.84;4490329;31;34653;-75
2022/01/26 14:09:04;;;;;;;34.65;17.00;;;;;;;3.05;79.80;100772.47;4479856;31;34165;-75
2022/01/26 14:11:50;;;;;;;17.55;9.70;;;;;;;3.00;79.33;100775.06;4475899;31;34708;-75
2022/01/26 14:14:45;;;;;;;16.23;8.13;;;;;;;2.88;79.45;100777.75;4487478;31;36146;-75
2022/01/26 14:21:10;;;;;;;16.17;6.82;;;;;;;2.70;80.41;100782.16;4489441;31;33956;-75
2022/01/26 14:26:50;;;;;;;13.57;6.72;;;;;;;2.71;80.52;100772.16;4475019;31;35019;-78
2022/01/26 14:29:59;;;;;;;14.10;7.90;;;;;;;2.59;80.90;100782.09;4487662;31;35404;-77
2022/01/26 15:00:11;;;;;;;16.70;6.53;;;;;;;2.70;81.16;100795.69;4481668;31;34572;-75
2022/01/26 15:31:42;;;;;;;27.50;12.10;;;;;;;1.82;85.17;100803.47;4479858;31;35123;-74
2022/01/26 15:52:02;;;;;;;17.87;9.18;;;;;;;2.28;83.05;100805.63;4467375;31;35212;-74
2022/01/26 15:57:58;;;;;;;19.85;8.90;;;;;;;2.37;83.12;100815.09;4473255;31;34189;-74
2022/01/26 17:12:09;;;;;;;31.12;14.40;;;;;;;0.74;93.65;100842.38;4490905;31;34213;-73
2022/01/26 17:43:17;;;;;;;41.03;16.42;;;;;;;0.98;92.10;100851.59;4417217;32;35120;-73
2022/01/26 18:13:53;;;;;;;34.15;15.48;;;;;;;1.07;92.07;100847.56;4483428;31;33351;-73
2022/01/26 18:46:21;;;;;;;32.50;13.10;;;;;;;0.52;95.45;100813.06;4492170;31;35635;-75
2022/01/26 18:49:48;;;;;;;29.67;12.10;;;;;;;0.06;97.33;100805.16;4472949;31;34121;-74
2022/01/26 18:52:37;;;;;;;27.92;12.35;;;;;;;0.12;98.10;100804.34;4480673;31;34266;-73
2022/01/26 18:55:23;;;;;;;26.70;11.12;;;;;;;0.48;94.75;100797.50;4477215;31;35973;-74
2022/01/26 18:58:10;;;;;;;28.60;12.57;;;;;;;0.95;93.20;100788.06;4476660;31;35146;-74
2022/01/26 19:00:56;;;;;;;28.05;12.07;;;;;;;0.73;92.10;100790.28;4480522;31;35054;-74
2022/01/26 19:03:43;;;;;;;27.20;11.30;;;;;;;1.27;90.72;100798.81;4475532;31;35256;-74
2022/01/26 19:06:29;;;;;;;33.40;12.07;;;;;;;1.77;87.66;100791.47;4485745;31;35978;-74
2022/01/26 19:09:21;;;;;;;35.08;14.10;;;;;;;1.91;85.89;100791.34;4489183;31;35494;-74
2022/01/26 19:12:11;;;;;;;34.03;15.68;;;;;;;2.25;83.93;100789.87;4482843;31;33907;-74
2022/01/26 19:15:02;;;;;;;35.88;14.75;;;;;;;2.23;82.72;100795.50;4471389;31;34353;-74
2022/01/26 19:23:35;;;;;;;40.47;17.35;;;;;;;1.38;86.15;100789.16;4483865;31;34272;-74
2022/01/26 19:26:27;;;;;;;46.00;16.90;;;;;;;0.93;89.45;100794.72;4479861;31;35111;-74
2022/01/26 19:29:46;;;;;;;30.95;14.13;;;;;;;1.07;88.57;100798.97;4477814;31;34952;-74
2022/01/26 19:44:44;;;;;;;29.40;12.35;;;;;;;0.47;92.93;100809.34;4481817;31;34483;-75
2022/01/26 19:50:51;;;;;;;29.02;11.63;;;;;;;1.33;88.55;100808.72;4481749;31;34229;-75
2022/01/26 19:53:39;;;;;;;34.42;13.10;;;;;;;1.60;86.15;100816.59;4479704;31;35864;-75
2022/01/26 19:56:25;;;;;;;35.10;14.18;;;;;;;1.03;87.47;100816.66;4491953;31;34455;-75
2022/01/26 19:59:12;;;;;;;30.48;13.57;;;;;;;0.55;90.47;100822.59;4484649;31;35754;-75
2022/01/26 20:01:59;;;;;;;31.80;13.85;;;;;;;0.85;89.29;100820.94;4479234;31;34610;-75